sensor_id;sensor_type;location;lat;lon;timestamp;pressure;altitude;pressure_sealevel;temperature;humidity
47726;BME280;33483;48.294;16.388;2022-12-07T00:01:35;99434.22;;;4.60;100.00
47726;BME280;33483;48.294;16.388;2022-12-07T00:04:03;99429.72;;;4.57;100.00
47726;BME280;33483;48.294;16.388;2022-12-07T00:06:40;99432.94;;;4.56;100.00
47726;BME280;33483;48.294;16.388;2022-12-07T00:09:14;99431.47;;;4.60;100.00
47726;BME280;33483;48.294;16.388;2022-12-07T00:11:43;99434.44;;;4.57;100.00
47726;BME280;33483;48.294;16.388;2022-12-07T00:14:12;99431.19;;;4.58;100.00
47726;BME280;33483;48.294;16.388;2022-12-07T00:16:41;99431.69;;;4.57;100.00
47726;BME280;33483;48.294;16.388;2022-12-07T00:19:09;99431.72;;;4.63;100.00
47726;BME280;33483;48.294;16.388;2022-12-07T00:21:37;99432.97;;;4.62;100.00
47726;BME280;33483;48.294;16.388;2022-12-07T00:24:07;99435.22;;;4.63;100.00
47726;BME280;33483;48.294;16.388;2022-12-07T00:26:38;99434.75;;;4.65;100.00
47726;BME280;33483;48.294;16.388;2022-12-07T00:29:09;99440.22;;;4.65;100.00
47726;BME280;33483;48.294;16.388;2022-12-07T00:31:39;99428.00;;;4.66;100.00
47726;BME280;33483;48.294;16.388;2022-12-07T00:34:11;99429.25;;;4.65;100.00
47726;BME280;33483;48.294;16.388;2022-12-07T00:36:39;99436.22;;;4.66;100.00
47726;BME280;33483;48.294;16.388;2022-12-07T00:39:06;99430.50;;;4.69;100.00
47726;BME280;33483;48.294;16.388;2022-12-07T00:41:36;99432.25;;;4.67;100.00
47726;BME280;33483;48.294;16.388;2022-12-07T00:44:03;99439.75;;;4.66;100.00
47726;BME280;33483;48.294;16.388;2022-12-07T00:46:30;99433.50;;;4.66;100.00
47726;BME280;33483;48.294;16.388;2022-12-07T00:48:57;99435.22;;;4.63;100.00
47726;BME280;33483;48.294;16.388;2022-12-07T00:51:25;99438.47;;;4.62;100.00
47726;BME280;33483;48.294;16.388;2022-12-07T00:53:52;99436.47;;;4.62;100.00
47726;BME280;33483;48.294;16.388;2022-12-07T00:56:23;99428.50;;;4.64;100.00
47726;BME280;33483;48.294;16.388;2022-12-07T00:58:54;99437.00;;;4.66;100.00
47726;BME280;33483;48.294;16.388;2022-12-07T01:01:24;99435.28;;;4.69;100.00
47726;BME280;33483;48.294;16.388;2022-12-07T01:03:52;99438.03;;;4.69;100.00
47726;BME280;33483;48.294;16.388;2022-12-07T01:06:22;99432.25;;;4.67;100.00
47726;BME280;33483;48.294;16.388;2022-12-07T01:08:55;99436.00;;;4.64;100.00
47726;BME280;33483;48.294;16.388;2022-12-07T01:11:26;99441.94;;;4.62;100.00
47726;BME280;33483;48.294;16.388;2022-12-07T01:13:55;99439.97;;;4.63;100.00
47726;BME280;33483;48.294;16.388;2022-12-07T01:16:24;99435.50;;;4.65;100.00
47726;BME280;33483;48.294;16.388;2022-12-07T01:18:54;99444.25;;;4.69;100.00
47726;BME280;33483;48.294;16.388;2022-12-07T01:21:27;99443.75;;;4.65;100.00
47726;BME280;33483;48.294;16.388;2022-12-07T01:23:54;99432.25;;;4.67;100.00
47726;BME280;33483;48.294;16.388;2022-12-07T01:26:25;99433.50;;;4.66;100.00
47726;BME280;33483;48.294;16.388;2022-12-07T01:28:53;99434.22;;;4.60;100.00
47726;BME280;33483;48.294;16.388;2022-12-07T01:31:24;99431.97;;;4.59;100.00
47726;BME280;33483;48.294;16.388;2022-12-07T01:33:59;99429.72;;;4.57;100.00
47726;BME280;33483;48.294;16.388;2022-12-07T01:36:34;99429.94;;;4.54;100.00
47726;BME280;33483;48.294;16.388;2022-12-07T01:39:05;99428.22;;;4.56;100.00
47726;BME280;33483;48.294;16.388;2022-12-07T01:41:36;99428.44;;;4.53;100.00
47726;BME280;33483;48.294;16.388;2022-12-07T01:46:33;99422.69;;;4.51;100.00
47726;BME280;33483;48.294;16.388;2022-12-07T01:49:00;99421.91;;;4.50;100.00
47726;BME280;33483;48.294;16.388;2022-12-07T01:51:28;99426.19;;;4.57;100.00
47726;BME280;33483;48.294;16.388;2022-12-07T01:53:56;99429.94;;;4.54;100.00
47726;BME280;33483;48.294;16.388;2022-12-07T01:56:26;99423.91;;;4.50;100.00
47726;BME280;33483;48.294;16.388;2022-12-07T01:58:54;99421.66;;;4.48;100.00
47726;BME280;33483;48.294;16.388;2022-12-07T02:01:21;99417.41;;;4.47;100.00
47726;BME280;33483;48.294;16.388;2022-12-07T02:03:49;99415.91;;;4.46;100.00
47726;BME280;33483;48.294;16.388;2022-12-07T02:06:20;99422.69;;;4.51;100.00
47726;BME280;33483;48.294;16.388;2022-12-07T02:08:49;99420.69;;;4.51;100.00
47726;BME280;33483;48.294;16.388;2022-12-07T02:11:16;99417.69;;;4.49;100.00
47726;BME280;33483;48.294;16.388;2022-12-07T02:13:44;99416.88;;;4.43;100.00
47726;BME280;33483;48.294;16.388;2022-12-07T02:16:27;99417.88;;;4.40;100.00
47726;BME280;33483;48.294;16.388;2022-12-07T02:21:46;99413.16;;;4.41;100.00
47726;BME280;33483;48.294;16.388;2022-12-07T02:27:33;99415.84;;;4.35;100.00
47726;BME280;33483;48.294;16.388;2022-12-07T02:30:08;99408.13;;;4.39;100.00
47726;BME280;33483;48.294;16.388;2022-12-07T02:35:25;99412.84;;;4.33;100.00
47726;BME280;33483;48.294;16.388;2022-12-07T02:40:33;99417.78;;;4.29;100.00
47726;BME280;33483;48.294;16.388;2022-12-07T02:43:17;99415.53;;;4.28;100.00
47726;BME280;33483;48.294;16.388;2022-12-07T02:45:47;99416.56;;;4.30;100.00
47726;BME280;33483;48.294;16.388;2022-12-07T02:48:17;99412.28;;;4.29;100.00
47726;BME280;33483;48.294;16.388;2022-12-07T02:50:49;99419.31;;;4.36;100.00
47726;BME280;33483;48.294;16.388;2022-12-07T03:01:55;99415.84;;;4.35;100.00
47726;BME280;33483;48.294;16.388;2022-12-07T03:05:07;99407.88;;;4.37;100.00
47726;BME280;33483;48.294;16.388;2022-12-07T03:07:49;99402.84;;;4.36;100.00
47726;BME280;33483;48.294;16.388;2022-12-07T03:19:07;99402.13;;;4.35;100.00
47726;BME280;33483;48.294;16.388;2022-12-07T03:21:46;99399.38;;;4.35;100.00
47726;BME280;33483;48.294;16.388;2022-12-07T03:24:20;99397.16;;;4.39;100.00
47726;BME280;33483;48.294;16.388;2022-12-07T03:26:52;99405.13;;;4.37;100.00
47726;BME280;33483;48.294;16.388;2022-12-07T03:29:29;99397.59;;;4.32;100.00
47726;BME280;33483;48.294;16.388;2022-12-07T03:32:06;99405.13;;;4.37;100.00
47726;BME280;33483;48.294;16.388;2022-12-07T03:34:57;99400.13;;;4.36;100.00
47726;BME280;33483;48.294;16.388;2022-12-07T03:37:32;99400.13;;;4.36;100.00
47726;BME280;33483;48.294;16.388;2022-12-07T03:42:37;99403.41;;;4.40;100.00
47726;BME280;33483;48.294;16.388;2022-12-07T03:45:05;99402.16;;;4.41;100.00
47726;BME280;33483;48.294;16.388;2022-12-07T03:47:45;99407.16;;;4.42;100.00
47726;BME280;33483;48.294;16.388;2022-12-07T03:53:18;99411.13;;;4.41;100.00
47726;BME280;33483;48.294;16.388;2022-12-07T03:55:48;99408.44;;;4.47;100.00
47726;BME280;33483;48.294;16.388;2022-12-07T03:58:18;99408.91;;;4.45;100.00
47726;BME280;33483;48.294;16.388;2022-12-07T04:00:46;99409.16;;;4.42;100.00
47726;BME280;33483;48.294;16.388;2022-12-07T04:03:14;99408.13;;;4.39;100.00
47726;BME280;33483;48.294;16.388;2022-12-07T04:05:42;99408.13;;;4.39;100.00
47726;BME280;33483;48.294;16.388;2022-12-07T04:08:10;99410.13;;;4.39;100.00
47726;BME280;33483;48.294;16.388;2022-12-07T04:10:39;99412.84;;;4.33;100.00
47726;BME280;33483;48.294;16.388;2022-12-07T04:13:06;99413.31;;;4.32;100.00
47726;BME280;33483;48.294;16.388;2022-12-07T04:15:33;99410.31;;;4.30;100.00
47726;BME280;33483;48.294;16.388;2022-12-07T04:18:00;99416.78;;;4.27;100.00
47726;BME280;33483;48.294;16.388;2022-12-07T04:20:28;99404.25;;;4.20;100.00
47726;BME280;33483;48.294;16.388;2022-12-07T04:22:55;99411.75;;;4.20;100.00
47726;BME280;33483;48.294;16.388;2022-12-07T04:25:24;99406.22;;;4.14;100.00
47726;BME280;33483;48.294;16.388;2022-12-07T04:27:54;99413.41;;;4.12;100.00
47726;BME280;33483;48.294;16.388;2022-12-07T04:30:21;99414.66;;;4.11;100.00
47726;BME280;33483;48.294;16.388;2022-12-07T04:32:53;99405.66;;;4.10;100.00
47726;BME280;33483;48.294;16.388;2022-12-07T04:35:20;99417.34;;;4.05;100.00
47726;BME280;33483;48.294;16.388;2022-12-07T04:37:48;99412.84;;;4.02;100.00
47726;BME280;33483;48.294;16.388;2022-12-07T04:40:17;99410.81;;;4.03;100.00
47726;BME280;33483;48.294;16.388;2022-12-07T04:42:47;99415.31;;;4.00;100.00
47726;BME280;33483;48.294;16.388;2022-12-07T04:45:14;99406.06;;;3.98;100.00
47726;BME280;33483;48.294;16.388;2022-12-07T04:47:42;99405.31;;;3.97;100.00
47726;BME280;33483;48.294;16.388;2022-12-07T04:50:11;99404.03;;;3.93;100.00
47726;BME280;33483;48.294;16.388;2022-12-07T04:52:40;99408.53;;;3.96;100.00
47726;BME280;33483;48.294;16.388;2022-12-07T04:55:08;99409.50;;;3.93;100.00
47726;BME280;33483;48.294;16.388;2022-12-07T04:57:35;99399.72;;;3.86;100.00
47726;BME280;33483;48.294;16.388;2022-12-07T05:00:03;99404.66;;;3.82;100.00
47726;BME280;33483;48.294;16.388;2022-12-07T05:02:30;99401.19;;;3.82;100.00
47726;BME280;33483;48.294;16.388;2022-12-07T05:04:58;99402.16;;;3.79;100.00
47726;BME280;33483;48.294;16.388;2022-12-07T05:07:27;99402.63;;;3.77;100.00
47726;BME280;33483;48.294;16.388;2022-12-07T05:09:54;99399.13;;;3.77;100.00
47726;BME280;33483;48.294;16.388;2022-12-07T05:12:22;99398.13;;;3.74;100.00
47726;BME280;33483;48.294;16.388;2022-12-07T05:14:49;99400.59;;;3.72;100.00
47726;BME280;33483;48.294;16.388;2022-12-07T05:17:16;99404.59;;;3.71;100.00
47726;BME280;33483;48.294;16.388;2022-12-07T05:19:43;99397.59;;;3.70;100.00
47726;BME280;33483;48.294;16.388;2022-12-07T05:22:11;99407.06;;;3.69;100.00
47726;BME280;33483;48.294;16.388;2022-12-07T05:24:38;99404.81;;;3.68;100.00
47726;BME280;33483;48.294;16.388;2022-12-07T05:27:05;99402.53;;;3.66;100.00
47726;BME280;33483;48.294;16.388;2022-12-07T05:29:32;99411.22;;;3.65;100.00
47726;BME280;33483;48.294;16.388;2022-12-07T05:32:02;99407.75;;;3.64;100.00
47726;BME280;33483;48.294;16.388;2022-12-07T05:34:29;99402.28;;;3.64;100.00
47726;BME280;33483;48.294;16.388;2022-12-07T05:36:56;99403.50;;;3.63;100.00
47726;BME280;33483;48.294;16.388;2022-12-07T05:39:23;99405.00;;;3.64;100.00
47726;BME280;33483;48.294;16.388;2022-12-07T05:41:51;99402.00;;;3.62;100.00
47726;BME280;33483;48.294;16.388;2022-12-07T05:44:36;99403.50;;;3.63;100.00
47726;BME280;33483;48.294;16.388;2022-12-07T05:47:04;99403.78;;;3.65;100.00
47726;BME280;33483;48.294;16.388;2022-12-07T05:49:31;99398.78;;;3.64;100.00
47726;BME280;33483;48.294;16.388;2022-12-07T05:51:59;99403.50;;;3.63;100.00
47726;BME280;33483;48.294;16.388;2022-12-07T05:54:26;99403.50;;;3.63;100.00
47726;BME280;33483;48.294;16.388;2022-12-07T05:56:53;99403.00;;;3.65;100.00
47726;BME280;33483;48.294;16.388;2022-12-07T05:59:20;99402.00;;;3.62;100.00
47726;BME280;33483;48.294;16.388;2022-12-07T06:02:11;99406.72;;;3.62;100.00
47726;BME280;33483;48.294;16.388;2022-12-07T06:04:44;99410.22;;;3.62;100.00
47726;BME280;33483;48.294;16.388;2022-12-07T06:07:13;99413.94;;;3.59;100.00
47726;BME280;33483;48.294;16.388;2022-12-07T06:09:41;99409.41;;;3.56;100.00
47726;BME280;33483;48.294;16.388;2022-12-07T06:12:10;99418.88;;;3.55;100.00
47726;BME280;33483;48.294;16.388;2022-12-07T06:14:57;99407.63;;;3.53;100.00
47726;BME280;33483;48.294;16.388;2022-12-07T06:17:24;99412.84;;;3.51;100.00
47726;BME280;33483;48.294;16.388;2022-12-07T06:19:54;99415.31;;;3.49;100.00
47726;BME280;33483;48.294;16.388;2022-12-07T06:22:21;99404.06;;;3.47;100.00
47726;BME280;33483;48.294;16.388;2022-12-07T06:24:49;99409.56;;;3.47;100.00
47726;BME280;33483;48.294;16.388;2022-12-07T06:27:16;99395.59;;;3.45;100.00
47726;BME280;33483;48.294;16.388;2022-12-07T06:29:43;99409.31;;;3.45;100.00
47726;BME280;33483;48.294;16.388;2022-12-07T06:32:13;99410.53;;;3.44;100.00
47726;BME280;33483;48.294;16.388;2022-12-07T06:34:40;99416.50;;;3.42;100.00
47726;BME280;33483;48.294;16.388;2022-12-07T06:37:07;99408.53;;;3.44;100.00
47726;BME280;33483;48.294;16.388;2022-12-07T06:39:35;99417.03;;;3.47;100.00
47726;BME280;33483;48.294;16.388;2022-12-07T06:42:02;99407.56;;;3.47;100.00
47726;BME280;33483;48.294;16.388;2022-12-07T06:44:29;99413.06;;;3.47;100.00
47726;BME280;33483;48.294;16.388;2022-12-07T06:46:59;99418.53;;;3.47;100.00
47726;BME280;33483;48.294;16.388;2022-12-07T06:49:46;99418.31;;;3.51;100.00
47726;BME280;33483;48.294;16.388;2022-12-07T06:52:13;99416.34;;;3.52;100.00
47726;BME280;33483;48.294;16.388;2022-12-07T06:54:40;99414.59;;;3.54;100.00
47726;BME280;33483;48.294;16.388;2022-12-07T06:57:08;99417.34;;;3.54;100.00
47726;BME280;33483;48.294;16.388;2022-12-07T06:59:35;99414.16;;;3.56;100.00
47726;BME280;33483;48.294;16.388;2022-12-07T07:02:02;99416.13;;;3.55;100.00
47726;BME280;33483;48.294;16.388;2022-12-07T07:04:29;99417.63;;;3.56;100.00
47726;BME280;33483;48.294;16.388;2022-12-07T07:06:57;99427.38;;;3.57;100.00
47726;BME280;33483;48.294;16.388;2022-12-07T07:09:29;99414.66;;;3.60;100.00
47726;BME280;33483;48.294;16.388;2022-12-07T07:11:56;99405.97;;;3.61;100.00
47726;BME280;33483;48.294;16.388;2022-12-07T07:14:26;99416.91;;;3.61;100.00
47726;BME280;33483;48.294;16.388;2022-12-07T07:16:53;99411.72;;;3.63;100.00
47726;BME280;33483;48.294;16.388;2022-12-07T07:19:21;99425.00;;;3.70;100.00
47726;BME280;33483;48.294;16.388;2022-12-07T07:21:48;99422.72;;;3.69;100.00
47726;BME280;33483;48.294;16.388;2022-12-07T07:24:15;99424.50;;;3.72;100.00
47726;BME280;33483;48.294;16.388;2022-12-07T07:26:42;99428.00;;;3.72;100.00
47726;BME280;33483;48.294;16.388;2022-12-07T07:29:09;99426.81;;;3.79;100.00
47726;BME280;33483;48.294;16.388;2022-12-07T07:31:41;99440.31;;;3.82;100.00
47726;BME280;33483;48.294;16.388;2022-12-07T07:34:08;99436.19;;;3.92;100.00
47726;BME280;33483;48.294;16.388;2022-12-07T07:36:35;99439.72;;;3.98;100.00
47726;BME280;33483;48.294;16.388;2022-12-07T07:39:03;99446.00;;;4.04;100.00
47726;BME280;33483;48.294;16.388;2022-12-07T07:41:30;99437.09;;;4.09;100.00
47726;BME280;33483;48.294;16.388;2022-12-07T07:43:58;99443.06;;;4.13;100.00
47726;BME280;33483;48.294;16.388;2022-12-07T07:46:25;99436.16;;;4.18;100.00
47726;BME280;33483;48.294;16.388;2022-12-07T07:48:52;99435.44;;;4.23;100.00
47726;BME280;33483;48.294;16.388;2022-12-07T07:51:19;99442.47;;;4.29;100.00
47726;BME280;33483;48.294;16.388;2022-12-07T07:53:47;99440.81;;;4.37;100.00
47726;BME280;33483;48.294;16.388;2022-12-07T07:56:14;99440.81;;;4.43;100.00
47726;BME280;33483;48.294;16.388;2022-12-07T07:58:41;99436.59;;;4.42;100.00
47726;BME280;33483;48.294;16.388;2022-12-07T08:01:08;99433.13;;;4.47;100.00
47726;BME280;33483;48.294;16.388;2022-12-07T08:03:36;99429.41;;;4.50;100.00
47726;BME280;33483;48.294;16.388;2022-12-07T08:06:03;99431.41;;;4.55;100.00
47726;BME280;33483;48.294;16.388;2022-12-07T08:08:31;99438.97;;;4.60;100.00
47726;BME280;33483;48.294;16.388;2022-12-07T08:10:58;99440.22;;;4.65;100.00
47726;BME280;33483;48.294;16.388;2022-12-07T08:13:28;99446.25;;;4.69;100.00
47726;BME280;33483;48.294;16.388;2022-12-07T08:15:57;99452.78;;;4.77;100.00
47726;BME280;33483;48.294;16.388;2022-12-07T08:18:25;99449.81;;;4.80;100.00
47726;BME280;33483;48.294;16.388;2022-12-07T08:20:58;99449.09;;;4.85;100.00
47726;BME280;33483;48.294;16.388;2022-12-07T08:23:29;99457.13;;;4.94;100.00
47726;BME280;33483;48.294;16.388;2022-12-07T08:26:07;99456.91;;;4.98;100.00
47726;BME280;33483;48.294;16.388;2022-12-07T08:28:35;99455.69;;;5.04;100.00
47726;BME280;33483;48.294;16.388;2022-12-07T08:31:06;99459.94;;;5.05;100.00
47726;BME280;33483;48.294;16.388;2022-12-07T08:33:46;99458.19;;;5.08;100.00
47726;BME280;33483;48.294;16.388;2022-12-07T08:36:14;99455.97;;;5.12;100.00
47726;BME280;33483;48.294;16.388;2022-12-07T08:38:42;99467.47;;;5.10;100.00
47726;BME280;33483;48.294;16.388;2022-12-07T08:41:29;99472.50;;;5.17;100.00
47726;BME280;33483;48.294;16.388;2022-12-07T08:43:57;99472.50;;;5.17;100.00
47726;BME280;33483;48.294;16.388;2022-12-07T08:46:32;99478.50;;;5.27;100.00
47726;BME280;33483;48.294;16.388;2022-12-07T08:51:34;99482.81;;;5.33;100.00
47726;BME280;33483;48.294;16.388;2022-12-07T08:54:07;99483.03;;;5.35;100.00
47726;BME280;33483;48.294;16.388;2022-12-07T08:56:36;99489.28;;;5.30;100.00
47726;BME280;33483;48.294;16.388;2022-12-07T08:59:04;99485.56;;;5.39;100.00
47726;BME280;33483;48.294;16.388;2022-12-07T09:01:32;99494.06;;;5.41;100.00
47726;BME280;33483;48.294;16.388;2022-12-07T09:04:00;99483.81;;;5.36;100.00
47726;BME280;33483;48.294;16.388;2022-12-07T09:06:27;99482.78;;;5.28;100.00
47726;BME280;33483;48.294;16.388;2022-12-07T09:08:58;99477.75;;;5.21;100.00
47726;BME280;33483;48.294;16.388;2022-12-07T09:11:27;99482.44;;;5.15;100.00
47726;BME280;33483;48.294;16.388;2022-12-07T09:13:55;99479.97;;;5.17;100.00
47726;BME280;33483;48.294;16.388;2022-12-07T09:16:22;99475.31;;;5.34;100.00
47726;BME280;33483;48.294;16.388;2022-12-07T09:18:50;99487.00;;;5.93;100.00
47726;BME280;33483;48.294;16.388;2022-12-07T09:21:17;99483.81;;;6.28;100.00
47726;BME280;33483;48.294;16.388;2022-12-07T09:23:45;99484.06;;;6.63;100.00
47726;BME280;33483;48.294;16.388;2022-12-07T09:26:12;99482.28;;;6.93;100.00
47726;BME280;33483;48.294;16.388;2022-12-07T09:28:39;99472.03;;;6.94;100.00
47726;BME280;33483;48.294;16.388;2022-12-07T09:31:06;99468.97;;;7.08;100.00
47726;BME280;33483;48.294;16.388;2022-12-07T09:33:57;99465.72;;;7.04;100.00
47726;BME280;33483;48.294;16.388;2022-12-07T09:36:26;99458.69;;;7.09;100.00
47726;BME280;33483;48.294;16.388;2022-12-07T09:38:54;99463.50;;;6.97;100.00
47726;BME280;33483;48.294;16.388;2022-12-07T09:41:22;99456.47;;;6.91;100.00
47726;BME280;33483;48.294;16.388;2022-12-07T09:43:51;99456.00;;;6.81;100.00
47726;BME280;33483;48.294;16.388;2022-12-07T09:46:19;99457.53;;;6.65;100.00
47726;BME280;33483;48.294;16.388;2022-12-07T09:48:49;99457.78;;;6.56;100.00
47726;BME280;33483;48.294;16.388;2022-12-07T09:51:19;99456.28;;;6.28;100.00
47726;BME280;33483;48.294;16.388;2022-12-07T09:53:56;99459.25;;;5.91;100.00
47726;BME280;33483;48.294;16.388;2022-12-07T09:56:24;99461.25;;;5.85;100.00
47726;BME280;33483;48.294;16.388;2022-12-07T09:58:58;99456.03;;;5.93;100.00
47726;BME280;33483;48.294;16.388;2022-12-07T10:01:30;99450.53;;;5.93;100.00
47726;BME280;33483;48.294;16.388;2022-12-07T10:04:08;99452.28;;;6.07;100.00
47726;BME280;33483;48.294;16.388;2022-12-07T10:06:36;99444.31;;;6.31;100.00
47726;BME280;33483;48.294;16.388;2022-12-07T10:09:12;99440.28;;;6.37;100.00
47726;BME280;33483;48.294;16.388;2022-12-07T10:14:29;99440.78;;;6.47;100.00
47726;BME280;33483;48.294;16.388;2022-12-07T10:17:30;99435.00;;;6.50;100.00
47726;BME280;33483;48.294;16.388;2022-12-07T10:20:24;99434.78;;;6.48;100.00
47726;BME280;33483;48.294;16.388;2022-12-07T10:22:57;99438.50;;;6.67;100.00
47726;BME280;33483;48.294;16.388;2022-12-07T10:25:31;99442.00;;;6.79;100.00
47726;BME280;33483;48.294;16.388;2022-12-07T10:28:22;99427.22;;;6.76;100.00
47726;BME280;33483;48.294;16.388;2022-12-07T10:36:23;99433.22;;;6.80;100.00
47726;BME280;33483;48.294;16.388;2022-12-07T10:39:20;99430.47;;;6.69;100.00
47726;BME280;33483;48.294;16.388;2022-12-07T10:42:27;99422.72;;;6.73;100.00
47726;BME280;33483;48.294;16.388;2022-12-07T10:45:17;99417.88;;;7.07;100.00
47726;BME280;33483;48.294;16.388;2022-12-07T10:50:29;99428.03;;;7.29;100.00
47726;BME280;33483;48.294;16.388;2022-12-07T10:53:28;99431.97;;;7.50;100.00
47726;BME280;33483;48.294;16.388;2022-12-07T10:56:33;99433.19;;;7.60;100.00
47726;BME280;33483;48.294;16.388;2022-12-07T11:02:43;99431.91;;;7.61;100.00
47726;BME280;33483;48.294;16.388;2022-12-07T11:11:06;99432.47;;;7.48;100.00
47726;BME280;33483;48.294;16.388;2022-12-07T11:22:01;99417.25;;;7.31;99.60
47726;BME280;33483;48.294;16.388;2022-12-07T11:27:24;99419.47;;;6.69;100.00
47726;BME280;33483;48.294;16.388;2022-12-07T11:35:22;99409.03;;;5.96;100.00
47726;BME280;33483;48.294;16.388;2022-12-07T11:37:57;99411.50;;;5.83;100.00
47726;BME280;33483;48.294;16.388;2022-12-07T11:43:05;99422.97;;;5.76;100.00
47726;BME280;33483;48.294;16.388;2022-12-07T11:45:41;99412.72;;;5.77;100.00
47726;BME280;33483;48.294;16.388;2022-12-07T11:48:31;99411.25;;;5.87;100.00
47726;BME280;33483;48.294;16.388;2022-12-07T11:51:01;99411.50;;;5.89;100.00
47726;BME280;33483;48.294;16.388;2022-12-07T11:53:37;99411.50;;;5.89;100.00
47726;BME280;33483;48.294;16.388;2022-12-07T11:56:08;99410.00;;;5.93;100.00
47726;BME280;33483;48.294;16.388;2022-12-07T12:01:19;99405.50;;;6.07;100.00
47726;BME280;33483;48.294;16.388;2022-12-07T12:03:52;99409.50;;;6.06;100.00
47726;BME280;33483;48.294;16.388;2022-12-07T12:06:23;99399.28;;;6.06;100.00
47726;BME280;33483;48.294;16.388;2022-12-07T12:08:56;99393.25;;;6.02;100.00
47726;BME280;33483;48.294;16.388;2022-12-07T12:23:35;99391.50;;;5.99;100.00
47726;BME280;33483;48.294;16.388;2022-12-07T12:26:07;99394.25;;;5.99;100.00
47726;BME280;33483;48.294;16.388;2022-12-07T12:28:41;99384.03;;;6.00;100.00
47726;BME280;33483;48.294;16.388;2022-12-07T12:31:32;99387.25;;;5.98;100.00
47726;BME280;33483;48.294;16.388;2022-12-07T12:34:04;99381.75;;;5.98;100.00
47726;BME280;33483;48.294;16.388;2022-12-07T12:47:00;99375.78;;;6.00;100.00
47726;BME280;33483;48.294;16.388;2022-12-07T12:52:00;99375.25;;;6.01;100.00
47726;BME280;33483;48.294;16.388;2022-12-07T12:54:34;99376.75;;;6.02;100.00
47726;BME280;33483;48.294;16.388;2022-12-07T12:57:27;99374.50;;;6.01;100.00
47726;BME280;33483;48.294;16.388;2022-12-07T13:02:25;99377.53;;;6.08;100.00
47726;BME280;33483;48.294;16.388;2022-12-07T13:04:56;99376.25;;;6.04;100.00
47726;BME280;33483;48.294;16.388;2022-12-07T13:23:58;99383.72;;;5.70;100.00
47726;BME280;33483;48.294;16.388;2022-12-07T13:34:26;99389.22;;;5.64;100.00
47726;BME280;33483;48.294;16.388;2022-12-07T13:36:52;99384.94;;;5.63;100.00
47726;BME280;33483;48.294;16.388;2022-12-07T13:39:22;99395.94;;;5.63;100.00
47726;BME280;33483;48.294;16.388;2022-12-07T13:41:54;99387.94;;;5.60;100.00
47726;BME280;33483;48.294;16.388;2022-12-07T13:44:25;99394.44;;;5.57;100.00
47726;BME280;33483;48.294;16.388;2022-12-07T13:47:19;99387.66;;;5.58;100.00
47726;BME280;33483;48.294;16.388;2022-12-07T13:49:53;99384.19;;;5.52;100.00
47726;BME280;33483;48.294;16.388;2022-12-07T13:52:25;99385.66;;;5.47;100.00
47726;BME280;33483;48.294;16.388;2022-12-07T13:57:35;99390.38;;;5.36;100.00
47726;BME280;33483;48.294;16.388;2022-12-07T14:00:05;99391.09;;;5.25;100.00
47726;BME280;33483;48.294;16.388;2022-12-07T14:02:34;99387.81;;;5.21;100.00
47726;BME280;33483;48.294;16.388;2022-12-07T14:05:24;99389.81;;;5.15;100.00
47726;BME280;33483;48.294;16.388;2022-12-07T14:10:30;99393.78;;;5.09;100.00
47726;BME280;33483;48.294;16.388;2022-12-07T14:13:00;99397.28;;;5.04;100.00
47726;BME280;33483;48.294;16.388;2022-12-07T14:15:33;99388.50;;;5.00;100.00
47726;BME280;33483;48.294;16.388;2022-12-07T14:18:02;99388.47;;;4.94;100.00
47726;BME280;33483;48.294;16.388;2022-12-07T14:20:40;99385.69;;;4.83;100.00
47726;BME280;33483;48.294;16.388;2022-12-07T14:23:25;99389.91;;;4.79;100.00
47726;BME280;33483;48.294;16.388;2022-12-07T14:25:53;99388.16;;;4.76;100.00
47726;BME280;33483;48.294;16.388;2022-12-07T14:28:28;99390.13;;;4.75;100.00
47726;BME280;33483;48.294;16.388;2022-12-07T14:30:57;99393.84;;;4.67;100.00
47726;BME280;33483;48.294;16.388;2022-12-07T14:33:25;99392.31;;;4.60;100.00
47726;BME280;33483;48.294;16.388;2022-12-07T14:35:53;99392.09;;;4.64;100.00
47726;BME280;33483;48.294;16.388;2022-12-07T14:38:25;99392.53;;;4.62;100.00
47726;BME280;33483;48.294;16.388;2022-12-07T14:40:54;99395.28;;;4.56;100.00
47726;BME280;33483;48.294;16.388;2022-12-07T14:43:42;99390.16;;;4.38;100.00
47726;BME280;33483;48.294;16.388;2022-12-07T14:46:29;99392.09;;;4.27;100.00
47726;BME280;33483;48.294;16.388;2022-12-07T14:48:56;99395.25;;;4.14;100.00
47726;BME280;33483;48.294;16.388;2022-12-07T14:51:46;99389.16;;;4.05;100.00
47726;BME280;33483;48.294;16.388;2022-12-07T14:54:33;99390.91;;;4.02;100.00
47726;BME280;33483;48.294;16.388;2022-12-07T14:57:00;99384.03;;;3.87;100.00
47726;BME280;33483;48.294;16.388;2022-12-07T14:59:30;99390.69;;;3.80;100.00
47726;BME280;33483;48.294;16.388;2022-12-07T15:02:00;99395.94;;;3.78;100.00
47726;BME280;33483;48.294;16.388;2022-12-07T15:04:27;99401.00;;;3.91;100.00
47726;BME280;33483;48.294;16.388;2022-12-07T15:07:00;99400.56;;;3.98;100.00
47726;BME280;33483;48.294;16.388;2022-12-07T15:09:27;99406.66;;;4.07;100.00
47726;BME280;33483;48.294;16.388;2022-12-07T15:11:57;99396.47;;;4.13;100.00
47726;BME280;33483;48.294;16.388;2022-12-07T15:14:24;99398.72;;;4.15;100.00
47726;BME280;33483;48.294;16.388;2022-12-07T15:16:52;99399.28;;;4.24;100.00
47726;BME280;33483;48.294;16.388;2022-12-07T15:19:35;99400.13;;;4.36;100.00
47726;BME280;33483;48.294;16.388;2022-12-07T15:22:08;99399.16;;;4.39;100.00
47726;BME280;33483;48.294;16.388;2022-12-07T15:24:37;99402.16;;;4.41;100.00
47726;BME280;33483;48.294;16.388;2022-12-07T15:27:05;99417.16;;;4.45;100.00
47726;BME280;33483;48.294;16.388;2022-12-07T15:29:32;99410.41;;;4.46;100.00
47726;BME280;33483;48.294;16.388;2022-12-07T15:31:59;99405.69;;;4.47;100.00